Time;durP1;ratioP1;P1;durP2;ratioP2;P2;SDS_P1;SDS_P2;PMS_P1;PMS_P2;Temp;Humidity;BMP_temperature;BMP_pressure;BME280_temperature;BME280_humidity;BME280_pressure;Samples;Min_cycle;Max_cycle;Signal;HPM_P1;HPM_P2
2021/10/06 00:02:06;;;;;;;2.13;1.30;;;16.50;89.60;;;;;;4190380;28;20048;-60
2021/10/06 00:04:28;;;;;;;2.15;1.48;;;16.50;89.70;;;;;;4174862;28;20048;-60
2021/10/06 00:06:51;;;;;;;3.13;1.85;;;16.50;90.00;;;;;;4174819;28;20499;-61
2021/10/06 00:09:12;;;;;;;3.58;1.60;;;16.50;89.70;;;;;;4174952;28;20041;-60
2021/10/06 00:11:36;;;;;;;4.72;2.00;;;16.50;90.00;;;;;;4189254;28;20105;-60
2021/10/06 00:13:58;;;;;;;3.05;1.77;;;16.50;89.80;;;;;;4191387;28;20068;-61
2021/10/06 00:16:21;;;;;;;2.47;1.65;;;16.50;89.70;;;;;;4191345;28;20091;-61
2021/10/06 00:18:44;;;;;;;3.88;2.00;;;16.50;90.00;;;;;;4180173;28;20048;-61
2021/10/06 00:21:06;;;;;;;2.38;1.55;;;16.50;89.70;;;;;;4182176;28;20040;-61
2021/10/06 00:23:30;;;;;;;4.20;1.98;;;16.50;89.60;;;;;;4191045;28;20123;-61
2021/10/06 00:25:52;;;;;;;1.67;1.55;;;16.50;89.70;;;;;;4191057;28;20129;-61
2021/10/06 00:28:15;;;;;;;2.83;1.80;;;16.50;89.90;;;;;;4191240;28;20044;-62
2021/10/06 00:30:41;;;;;;;2.85;1.73;;;16.50;89.90;;;;;;4180985;28;20052;-61
2021/10/06 00:33:03;;;;;;;2.88;1.55;;;16.50;90.10;;;;;;4182688;28;20238;-61
2021/10/06 00:35:25;;;;;;;2.67;1.73;;;16.50;89.90;;;;;;4191102;28;20127;-61
2021/10/06 00:37:47;;;;;;;2.85;1.50;;;16.50;90.00;;;;;;4184394;28;20479;-61
2021/10/06 00:40:10;;;;;;;4.18;1.80;;;16.50;90.00;;;;;;4179429;28;20055;-61
2021/10/06 00:42:33;;;;;;;1.40;1.38;;;16.40;90.00;;;;;;4190900;28;20094;-61
2021/10/06 00:44:57;;;;;;;3.03;1.80;;;16.40;89.80;;;;;;4190981;28;20513;-62
2021/10/06 00:47:19;;;;;;;3.33;1.90;;;16.40;90.10;;;;;;4191060;28;20052;-61
2021/10/06 00:49:42;;;;;;;3.17;2.05;;;16.40;90.10;;;;;;4189922;28;20099;-61
2021/10/06 00:52:04;;;;;;;1.65;1.13;;;16.40;90.00;;;;;;4174775;28;20056;-61
2021/10/06 00:54:26;;;;;;;2.15;1.50;;;16.40;90.00;;;;;;4174532;28;20049;-62
2021/10/06 00:56:49;;;;;;;2.63;1.25;;;16.40;90.00;;;;;;4174865;28;20045;-61
2021/10/06 00:59:11;;;;;;;3.47;1.73;;;16.40;90.10;;;;;;4177427;28;20052;-61
2021/10/06 01:01:34;;;;;;;2.70;1.45;;;16.40;90.10;;;;;;4161120;28;20099;-61
2021/10/06 01:03:57;;;;;;;1.65;1.55;;;16.40;90.00;;;;;;4161011;28;20721;-61
2021/10/06 01:06:19;;;;;;;1.88;1.27;;;16.40;90.10;;;;;;4161180;28;20173;-62
2021/10/06 01:08:42;;;;;;;2.95;1.98;;;16.40;90.10;;;;;;4159494;28;20458;-61
2021/10/06 01:11:04;;;;;;;1.85;1.58;;;16.40;90.10;;;;;;4188939;28;20080;-61
2021/10/06 01:13:27;;;;;;;3.67;1.80;;;16.40;90.10;;;;;;4188511;28;20045;-61
2021/10/06 01:15:51;;;;;;;3.60;1.52;;;16.40;90.20;;;;;;4177611;28;20128;-62
2021/10/06 01:18:16;;;;;;;5.00;1.52;;;16.40;90.10;;;;;;4177606;28;20048;-61
2021/10/06 01:20:39;;;;;;;1.95;1.25;;;16.40;89.70;;;;;;4187913;28;20053;-61
2021/10/06 01:23:03;;;;;;;3.83;1.40;;;16.40;90.00;;;;;;4193505;28;20052;-61
2021/10/06 01:25:24;;;;;;;1.45;1.27;;;16.40;90.40;;;;;;4193515;28;20048;-61
2021/10/06 01:27:47;;;;;;;1.50;1.30;;;16.40;90.40;;;;;;4193713;28;20072;-61
2021/10/06 01:30:11;;;;;;;1.10;1.05;;;16.40;90.00;;;;;;4185249;28;20048;-62
2021/10/06 01:32:36;;;;;;;1.67;0.90;;;16.40;89.80;;;;;;4177207;28;20075;-62
2021/10/06 01:35:01;;;;;;;3.63;1.60;;;16.40;89.90;;;;;;4177339;28;20057;-61
2021/10/06 01:37:23;;;;;;;3.72;1.13;;;16.30;90.00;;;;;;4177471;28;20049;-61
2021/10/06 01:39:46;;;;;;;3.38;1.17;;;16.40;90.00;;;;;;4180834;28;20059;-62
2021/10/06 01:42:08;;;;;;;2.13;1.27;;;16.40;90.10;;;;;;4193631;28;20048;-61
2021/10/06 01:44:30;;;;;;;1.45;1.27;;;16.30;90.00;;;;;;4193424;28;20052;-61
2021/10/06 01:46:53;;;;;;;1.40;1.25;;;16.30;89.80;;;;;;4191983;28;20064;-61
2021/10/06 01:49:15;;;;;;;3.92;1.83;;;16.30;89.90;;;;;;4193171;28;20061;-61
2021/10/06 01:51:37;;;;;;;2.15;1.30;;;16.30;90.00;;;;;;4169217;28;20080;-61
2021/10/06 01:54:00;;;;;;;3.30;1.30;;;16.30;89.60;;;;;;4176586;28;20056;-61
2021/10/06 01:56:24;;;;;;;1.52;1.17;;;16.30;89.10;;;;;;4179070;28;20127;-61
2021/10/06 01:58:46;;;;;;;1.35;0.80;;;16.30;89.70;;;;;;4191567;28;20114;-61
2021/10/06 02:01:08;;;;;;;1.45;1.10;;;16.30;89.30;;;;;;4178905;28;20057;-61
2021/10/06 02:03:30;;;;;;;1.27;1.08;;;16.30;89.40;;;;;;4176919;28;20499;-61
2021/10/06 02:05:52;;;;;;;1.30;1.10;;;16.30;89.90;;;;;;4176584;28;20056;-62
2021/10/06 02:08:16;;;;;;;2.38;1.35;;;16.30;90.00;;;;;;4176841;28;20049;-61
2021/10/06 02:10:39;;;;;;;3.20;1.75;;;16.30;89.80;;;;;;4176620;28;20111;-62
2021/10/06 02:13:02;;;;;;;1.85;1.58;;;16.30;89.70;;;;;;4176779;28;20059;-61
2021/10/06 02:15:24;;;;;;;3.08;1.73;;;16.30;89.20;;;;;;4176214;28;20045;-60
2021/10/06 02:17:46;;;;;;;2.28;1.70;;;16.30;90.10;;;;;;4175680;28;20075;-61
2021/10/06 02:20:09;;;;;;;3.10;1.70;;;16.30;89.70;;;;;;4175316;28;20068;-62
2021/10/06 02:22:31;;;;;;;2.05;1.45;;;16.20;89.70;;;;;;4176731;28;20041;-62
2021/10/06 02:24:53;;;;;;;1.23;1.10;;;16.30;89.70;;;;;;4175884;28;20159;-60
2021/10/06 02:27:15;;;;;;;2.17;1.70;;;16.20;89.70;;;;;;4176228;28;20052;-61
2021/10/06 02:29:39;;;;;;;2.70;1.67;;;16.20;89.80;;;;;;4188819;28;20047;-61
2021/10/06 02:32:01;;;;;;;2.53;1.65;;;16.20;89.70;;;;;;4192776;28;20508;-61
2021/10/06 02:34:23;;;;;;;2.72;1.40;;;16.20;89.80;;;;;;4192757;28;20049;-62
2021/10/06 02:36:45;;;;;;;2.05;1.55;;;16.20;89.70;;;;;;4181901;28;20044;-62
2021/10/06 02:39:07;;;;;;;3.00;1.40;;;16.20;89.40;;;;;;4176625;28;20571;-60
2021/10/06 02:41:29;;;;;;;2.67;1.70;;;16.20;89.40;;;;;;4176086;28;20059;-60
2021/10/06 02:43:51;;;;;;;1.30;1.20;;;16.20;89.90;;;;;;4176575;28;20051;-59
2021/10/06 02:46:15;;;;;;;1.92;1.40;;;16.20;89.90;;;;;;4176105;28;20564;-61
2021/10/06 02:48:36;;;;;;;1.83;1.73;;;16.20;89.90;;;;;;4179921;28;20491;-62
2021/10/06 02:50:59;;;;;;;2.22;1.52;;;16.20;89.90;;;;;;4192280;28;20055;-60
2021/10/06 02:53:21;;;;;;;2.05;1.60;;;16.20;90.00;;;;;;4184883;28;20052;-61
2021/10/06 02:55:43;;;;;;;1.55;1.45;;;16.20;89.80;;;;;;4177945;28;20127;-61
2021/10/06 02:58:05;;;;;;;1.70;1.60;;;16.20;90.00;;;;;;4192194;28;20147;-61
2021/10/06 03:00:27;;;;;;;2.38;1.83;;;16.20;89.90;;;;;;4159104;28;20038;-61
2021/10/06 03:02:50;;;;;;;1.25;1.23;;;16.20;89.30;;;;;;4158853;28;20049;-60
2021/10/06 03:05:14;;;;;;;2.20;1.55;;;16.20;89.10;;;;;;4159303;28;20049;-61
2021/10/06 03:07:36;;;;;;;4.00;1.38;;;16.20;89.70;;;;;;4159198;28;20526;-61
2021/10/06 03:09:58;;;;;;;2.38;1.50;;;16.20;90.00;;;;;;4159258;28;20049;-60
2021/10/06 03:12:21;;;;;;;2.10;1.65;;;16.20;90.00;;;;;;4159122;28;20044;-62
2021/10/06 03:14:43;;;;;;;3.58;1.65;;;16.10;90.10;;;;;;4159128;28;20053;-61
2021/10/06 03:17:05;;;;;;;7.78;2.65;;;16.10;90.10;;;;;;4173775;28;20047;-61
2021/10/06 03:19:29;;;;;;;1.88;1.75;;;16.20;90.00;;;;;;4187486;28;20487;-60
2021/10/06 03:21:51;;;;;;;2.90;2.22;;;16.10;90.00;;;;;;4191556;28;20064;-61
2021/10/06 03:24:13;;;;;;;2.05;1.90;;;16.10;90.00;;;;;;4191976;28;20563;-61
2021/10/06 03:26:35;;;;;;;2.75;2.30;;;16.10;90.10;;;;;;4191966;28;20165;-61
2021/10/06 03:28:58;;;;;;;3.17;2.17;;;16.10;90.00;;;;;;4181945;28;20140;-61
2021/10/06 03:31:20;;;;;;;3.47;2.38;;;16.10;90.10;;;;;;4178724;28;20055;-62
2021/10/06 03:33:42;;;;;;;2.08;1.98;;;16.10;89.80;;;;;;4191972;28;20585;-61
2021/10/06 03:36:06;;;;;;;2.17;2.08;;;16.10;90.10;;;;;;4191862;28;20411;-62
2021/10/06 03:38:28;;;;;;;2.30;2.10;;;16.10;89.80;;;;;;4185373;28;20491;-61
2021/10/06 03:40:50;;;;;;;2.22;1.85;;;16.10;90.20;;;;;;4175365;28;20491;-62
2021/10/06 03:43:12;;;;;;;4.03;1.90;;;16.10;90.20;;;;;;4175364;28;20077;-61
2021/10/06 03:45:34;;;;;;;3.03;2.35;;;16.10;90.10;;;;;;4175728;28;20049;-62
2021/10/06 03:48:01;;;;;;;3.85;1.90;;;16.10;90.00;;;;;;4176623;28;20041;-62
2021/10/06 03:50:23;;;;;;;4.13;1.85;;;16.10;90.50;;;;;;4191515;28;20079;-63
2021/10/06 03:52:47;;;;;;;3.38;2.45;;;16.10;90.20;;;;;;4191937;28;20076;-62
2021/10/06 03:55:10;;;;;;;2.22;2.00;;;16.10;90.10;;;;;;4191623;28;20040;-62
2021/10/06 03:57:32;;;;;;;2.58;2.28;;;16.10;90.20;;;;;;4185253;28;20056;-63
2021/10/06 03:59:54;;;;;;;2.20;2.10;;;16.10;90.20;;;;;;4191492;28;20453;-63
2021/10/06 04:02:16;;;;;;;3.78;1.98;;;16.10;90.30;;;;;;4191477;28;20495;-61
2021/10/06 04:04:38;;;;;;;3.90;2.00;;;16.10;90.40;;;;;;4191206;28;20053;-62
2021/10/06 04:07:01;;;;;;;4.03;2.42;;;16.10;90.20;;;;;;4185971;28;20051;-61
2021/10/06 04:09:24;;;;;;;3.00;2.15;;;16.10;90.10;;;;;;4191384;28;20037;-62
2021/10/06 04:11:47;;;;;;;3.65;2.20;;;16.10;90.10;;;;;;4191519;28;20430;-61
2021/10/06 04:14:09;;;;;;;3.33;2.05;;;16.10;90.10;;;;;;4191124;28;20084;-62
2021/10/06 04:16:32;;;;;;;1.92;1.77;;;16.10;90.20;;;;;;4191365;28;20040;-62
2021/10/06 04:18:54;;;;;;;2.15;1.70;;;16.10;90.20;;;;;;4183645;28;20484;-62
2021/10/06 04:21:16;;;;;;;3.35;2.13;;;16.10;90.30;;;;;;4174959;28;20041;-62
2021/10/06 04:23:38;;;;;;;2.58;1.95;;;16.10;90.20;;;;;;4174465;28;20068;-62
2021/10/06 04:26:01;;;;;;;4.35;1.90;;;16.10;90.30;;;;;;4176093;28;21467;-62
2021/10/06 04:28:23;;;;;;;3.53;2.38;;;16.10;90.30;;;;;;4191392;28;20106;-61
2021/10/06 04:30:45;;;;;;;4.05;1.88;;;16.10;90.20;;;;;;4191371;28;20040;-61
2021/10/06 04:33:07;;;;;;;2.60;1.58;;;16.10;90.30;;;;;;4196081;28;20054;-62
2021/10/06 04:35:30;;;;;;;2.08;1.73;;;16.10;90.20;;;;;;4196667;28;20049;-61
2021/10/06 04:37:55;;;;;;;3.38;2.05;;;16.00;90.20;;;;;;4179985;28;20090;-61
2021/10/06 04:40:17;;;;;;;4.90;1.65;;;16.00;90.20;;;;;;4179897;28;20125;-61
2021/10/06 04:42:42;;;;;;;2.13;1.52;;;16.10;90.30;;;;;;4179657;28;20052;-62
2021/10/06 04:45:06;;;;;;;2.28;1.77;;;16.10;90.40;;;;;;4180605;28;21633;-61
2021/10/06 04:47:32;;;;;;;3.67;1.50;;;16.00;90.20;;;;;;4181628;28;20067;-61
2021/10/06 04:49:54;;;;;;;1.80;1.60;;;16.10;90.40;;;;;;4179743;28;20155;-62
2021/10/06 04:52:16;;;;;;;1.83;1.40;;;16.00;90.50;;;;;;4180162;28;20869;-62
2021/10/06 04:54:42;;;;;;;3.38;1.50;;;16.00;90.40;;;;;;4179647;28;20462;-63
2021/10/06 04:57:04;;;;;;;3.42;1.30;;;16.00;90.40;;;;;;4190592;28;20050;-62
2021/10/06 04:59:27;;;;;;;3.00;1.60;;;16.00;90.50;;;;;;4179855;28;20584;-62
2021/10/06 05:01:49;;;;;;;2.25;1.30;;;16.10;90.40;;;;;;4179643;28;20052;-61
2021/10/06 05:04:12;;;;;;;2.17;1.27;;;16.00;90.40;;;;;;4179821;28;20491;-62
2021/10/06 05:06:34;;;;;;;1.40;1.30;;;16.00;90.50;;;;;;4181049;28;20055;-62
2021/10/06 05:08:57;;;;;;;2.85;1.63;;;16.00;90.50;;;;;;4180410;28;20147;-62
2021/10/06 05:11:22;;;;;;;2.35;1.45;;;16.00;90.40;;;;;;4179833;28;20056;-62
2021/10/06 05:13:44;;;;;;;3.15;1.42;;;16.00;90.50;;;;;;4179382;28;20422;-61
2021/10/06 05:16:08;;;;;;;1.88;1.30;;;16.00;90.40;;;;;;4185478;28;20105;-61
2021/10/06 05:18:30;;;;;;;1.50;1.10;;;16.00;90.30;;;;;;4196564;28;20055;-62
2021/10/06 05:20:52;;;;;;;5.68;1.73;;;16.00;90.40;;;;;;4195611;28;20063;-60
2021/10/06 05:23:14;;;;;;;1.85;1.30;;;16.00;90.30;;;;;;4196355;28;20514;-62
2021/10/06 05:25:37;;;;;;;1.45;1.35;;;16.00;90.40;;;;;;4192255;28;20052;-61
2021/10/06 05:27:59;;;;;;;1.33;1.23;;;16.00;90.30;;;;;;4182174;28;20487;-62
2021/10/06 05:30:21;;;;;;;1.90;1.50;;;16.00;90.40;;;;;;4196266;28;20049;-62
2021/10/06 05:32:49;;;;;;;1.25;1.17;;;16.00;90.40;;;;;;4195986;28;20055;-62
2021/10/06 05:35:11;;;;;;;4.60;1.65;;;16.00;90.50;;;;;;4195879;28;20048;-62
2021/10/06 05:37:34;;;;;;;1.20;1.10;;;16.00;90.50;;;;;;4172861;28;20106;-61
2021/10/06 05:39:56;;;;;;;3.17;1.55;;;16.00;90.40;;;;;;4184772;28;20494;-62
2021/10/06 05:42:18;;;;;;;1.38;1.10;;;16.00;90.40;;;;;;4185887;28;20131;-61
2021/10/06 05:44:40;;;;;;;1.75;1.10;;;16.00;90.40;;;;;;4176304;28;20060;-62
2021/10/06 05:47:03;;;;;;;3.15;1.75;;;16.00;90.40;;;;;;4176557;28;20110;-61
2021/10/06 05:49:26;;;;;;;2.08;1.30;;;16.00;90.40;;;;;;4177111;28;20593;-61
2021/10/06 05:51:48;;;;;;;2.67;1.88;;;16.00;90.30;;;;;;4193136;28;20091;-60
2021/10/06 05:54:11;;;;;;;1.88;1.50;;;16.00;90.60;;;;;;4185974;28;20053;-55
2021/10/06 05:56:33;;;;;;;5.82;1.50;;;16.00;90.80;;;;;;4177002;28;20051;-60
2021/10/06 05:58:55;;;;;;;2.92;1.40;;;16.10;90.80;;;;;;4177127;28;20049;-59
2021/10/06 06:01:17;;;;;;;2.95;1.50;;;16.10;90.80;;;;;;4164486;28;20090;-59
2021/10/06 06:03:39;;;;;;;3.72;1.70;;;16.10;90.80;;;;;;4176648;28;20055;-59
2021/10/06 06:06:03;;;;;;;1.67;1.40;;;16.10;90.90;;;;;;4176696;28;20072;-58
2021/10/06 06:08:25;;;;;;;4.78;1.65;;;16.10;90.70;;;;;;4176657;28;20045;-59
2021/10/06 06:10:48;;;;;;;1.42;1.10;;;16.10;90.70;;;;;;4176715;28;20103;-58
2021/10/06 06:13:10;;;;;;;2.50;1.42;;;16.10;90.60;;;;;;4160127;28;20132;-59
2021/10/06 06:15:32;;;;;;;2.40;1.50;;;16.10;90.50;;;;;;4178604;28;20159;-58
2021/10/06 06:17:54;;;;;;;2.65;1.30;;;16.10;90.90;;;;;;4176275;28;20122;-58
2021/10/06 06:20:23;;;;;;;1.20;1.10;;;16.10;90.30;;;;;;4183201;28;20045;-59
2021/10/06 06:22:46;;;;;;;2.30;1.10;;;16.10;90.30;;;;;;4176674;28;20053;-58
2021/10/06 06:25:10;;;;;;;2.58;1.48;;;16.10;90.20;;;;;;4176593;28;20056;-59
2021/10/06 06:27:33;;;;;;;2.38;1.30;;;16.10;90.10;;;;;;4176352;28;20045;-59
2021/10/06 06:29:55;;;;;;;1.30;1.15;;;16.00;90.10;;;;;;4176213;28;20818;-59
2021/10/06 06:32:18;;;;;;;1.75;1.13;;;16.00;90.10;;;;;;4176388;28;20048;-59
2021/10/06 06:34:40;;;;;;;2.33;1.10;;;16.00;90.50;;;;;;4176124;28;20526;-59
2021/10/06 06:37:03;;;;;;;2.15;1.20;;;16.00;90.10;;;;;;4176211;28;20122;-59
2021/10/06 06:39:27;;;;;;;2.55;1.20;;;16.00;90.10;;;;;;4175435;28;20041;-59
2021/10/06 06:41:50;;;;;;;1.10;1.10;;;16.00;90.00;;;;;;4176112;28;20052;-59
2021/10/06 06:44:12;;;;;;;1.88;1.23;;;16.00;90.00;;;;;;4181167;28;20124;-59
2021/10/06 06:46:36;;;;;;;1.38;1.23;;;16.00;90.00;;;;;;4159844;28;20484;-59
2021/10/06 06:48:58;;;;;;;1.10;1.08;;;16.00;89.80;;;;;;4165137;28;20072;-59
2021/10/06 06:51:20;;;;;;;0.95;0.95;;;16.00;90.00;;;;;;4176036;28;20749;-59
2021/10/06 06:53:42;;;;;;;1.65;1.20;;;16.00;90.00;;;;;;4176107;28;20053;-59
2021/10/06 06:56:06;;;;;;;1.58;1.30;;;16.00;90.00;;;;;;4174823;28;20462;-59
2021/10/06 06:58:28;;;;;;;1.30;1.20;;;16.00;89.90;;;;;;4176106;28;20049;-59
2021/10/06 07:00:51;;;;;;;2.03;1.35;;;16.00;90.40;;;;;;4175781;28;20049;-59
2021/10/06 07:03:12;;;;;;;2.17;1.23;;;16.00;90.00;;;;;;4175936;28;20045;-59
2021/10/06 07:05:34;;;;;;;2.13;1.60;;;16.00;89.90;;;;;;4175558;28;20048;-59
2021/10/06 07:07:57;;;;;;;1.55;1.27;;;16.00;89.80;;;;;;4175896;28;20052;-59
2021/10/06 07:10:19;;;;;;;1.48;1.10;;;16.00;89.90;;;;;;4177082;28;20533;-58
2021/10/06 07:12:43;;;;;;;4.03;1.23;;;16.00;89.60;;;;;;4176765;28;20064;-58
2021/10/06 07:15:09;;;;;;;1.98;1.30;;;16.00;89.40;;;;;;4187792;28;20541;-59
2021/10/06 07:17:31;;;;;;;0.95;0.95;;;16.00;89.40;;;;;;4190439;28;20441;-59
2021/10/06 07:19:53;;;;;;;1.65;1.10;;;16.00;89.40;;;;;;4175457;28;20529;-59
2021/10/06 07:22:16;;;;;;;1.25;1.10;;;16.00;89.30;;;;;;4159051;28;20057;-60
2021/10/06 07:24:38;;;;;;;2.05;1.40;;;16.00;89.30;;;;;;4159027;28;20060;-60
2021/10/06 07:27:01;;;;;;;2.20;1.02;;;16.00;89.50;;;;;;4175437;28;20063;-61
2021/10/06 07:29:25;;;;;;;2.05;1.20;;;16.00;90.00;;;;;;4191552;28;20050;-59
2021/10/06 07:31:47;;;;;;;4.30;1.42;;;15.90;89.10;;;;;;4187422;28;20075;-59
2021/10/06 07:34:10;;;;;;;2.30;1.10;;;16.00;89.20;;;;;;4191286;28;20457;-60
2021/10/06 07:36:32;;;;;;;1.95;1.13;;;15.90;89.10;;;;;;4192142;28;20086;-59
2021/10/06 07:38:56;;;;;;;2.90;1.45;;;15.90;89.20;;;;;;4191549;28;20064;-59
2021/10/06 07:41:18;;;;;;;1.48;1.25;;;15.90;89.00;;;;;;4182470;28;20531;-58
2021/10/06 07:43:40;;;;;;;1.27;1.05;;;15.90;89.20;;;;;;4175109;28;20049;-59
2021/10/06 07:46:04;;;;;;;2.55;1.08;;;15.90;89.30;;;;;;4175610;28;20112;-59
2021/10/06 07:48:26;;;;;;;1.42;1.33;;;16.00;89.30;;;;;;4175122;28;21078;-60
2021/10/06 07:50:48;;;;;;;2.22;1.25;;;16.00;89.40;;;;;;4175064;28;20057;-59
2021/10/06 07:53:10;;;;;;;2.05;1.00;;;15.90;89.30;;;;;;4174703;28;20127;-59
2021/10/06 07:55:33;;;;;;;3.17;1.27;;;16.00;90.10;;;;;;4174837;28;20041;-60
2021/10/06 07:57:56;;;;;;;3.08;1.35;;;15.90;89.40;;;;;;4175015;28;20048;-60
2021/10/06 08:00:19;;;;;;;1.10;0.88;;;16.00;89.80;;;;;;4175044;28;20506;-59
2021/10/06 08:02:43;;;;;;;2.50;0.98;;;16.00;89.00;;;;;;4174934;28;20132;-60
2021/10/06 08:05:06;;;;;;;1.35;1.00;;;16.00;89.10;;;;;;4174743;28;20496;-59
2021/10/06 08:07:28;;;;;;;1.42;0.95;;;16.00;89.20;;;;;;4174610;28;21621;-59
2021/10/06 08:09:50;;;;;;;1.27;1.17;;;16.00;89.10;;;;;;4175174;28;20053;-59
2021/10/06 08:12:12;;;;;;;1.13;1.02;;;16.00;89.00;;;;;;4174851;28;20056;-58
2021/10/06 08:14:35;;;;;;;1.95;1.00;;;16.00;89.10;;;;;;4174822;28;20424;-59
2021/10/06 08:16:58;;;;;;;0.75;0.70;;;16.00;89.10;;;;;;4174918;28;20114;-59
2021/10/06 08:19:22;;;;;;;1.58;0.90;;;16.00;88.90;;;;;;4175003;28;20106;-59
2021/10/06 08:21:45;;;;;;;0.98;0.82;;;16.00;88.80;;;;;;4174887;28;20080;-59
2021/10/06 08:24:07;;;;;;;1.75;1.08;;;16.00;88.90;;;;;;4174757;28;20049;-59
2021/10/06 08:26:29;;;;;;;1.27;1.17;;;16.00;89.10;;;;;;4175044;28;20053;-59
2021/10/06 08:28:51;;;;;;;1.60;1.05;;;16.00;89.10;;;;;;4174383;28;20098;-59
2021/10/06 08:31:14;;;;;;;1.20;1.10;;;16.00;89.00;;;;;;4174574;28;20074;-59
2021/10/06 08:33:36;;;;;;;4.13;1.17;;;16.00;90.00;;;;;;4174742;28;20056;-59
2021/10/06 08:35:59;;;;;;;1.17;1.08;;;16.00;89.20;;;;;;4174790;28;20090;-59
2021/10/06 08:38:22;;;;;;;1.50;0.93;;;16.00;89.10;;;;;;4174239;28;20056;-59
2021/10/06 08:40:44;;;;;;;2.10;1.10;;;16.00;88.80;;;;;;4174498;28;20056;-59
2021/10/06 08:43:08;;;;;;;0.90;0.90;;;16.00;89.00;;;;;;4174496;28;20045;-59
2021/10/06 08:45:30;;;;;;;1.73;1.17;;;16.00;89.00;;;;;;4173074;28;20507;-59
2021/10/06 08:47:53;;;;;;;0.95;0.88;;;16.00;88.70;;;;;;4174574;28;20045;-59
2021/10/06 08:50:18;;;;;;;1.20;1.00;;;16.00;88.70;;;;;;4174517;28;20049;-59
2021/10/06 08:52:41;;;;;;;1.88;1.10;;;16.00;88.60;;;;;;4174650;28;20057;-59
2021/10/06 08:55:06;;;;;;;1.30;1.20;;;16.00;88.80;;;;;;4174036;28;20098;-59
2021/10/06 08:57:29;;;;;;;1.38;1.27;;;16.00;88.90;;;;;;4174399;28;20037;-59
2021/10/06 08:59:51;;;;;;;2.00;1.20;;;16.00;88.90;;;;;;4174511;28;20057;-59
2021/10/06 09:02:14;;;;;;;1.33;1.20;;;16.00;88.90;;;;;;4174482;28;20733;-59
2021/10/06 09:04:36;;;;;;;1.40;1.23;;;16.00;89.10;;;;;;4174160;28;20086;-59
2021/10/06 09:07:03;;;;;;;2.20;1.35;;;16.00;89.10;;;;;;4174447;28;20064;-59
2021/10/06 09:09:26;;;;;;;1.20;1.10;;;16.00;89.10;;;;;;4174689;28;20051;-59
2021/10/06 09:11:50;;;;;;;1.88;1.25;;;16.00;89.30;;;;;;4179324;28;20414;-59
2021/10/06 09:14:12;;;;;;;3.08;1.63;;;16.00;89.30;;;;;;4177686;28;20056;-59
2021/10/06 09:16:37;;;;;;;2.53;1.13;;;16.00;89.60;;;;;;4176272;28;20080;-58
2021/10/06 09:18:59;;;;;;;2.05;1.27;;;16.00;89.60;;;;;;4175910;28;20495;-59
2021/10/06 09:21:22;;;;;;;1.30;1.20;;;16.00;89.70;;;;;;4177457;28;20546;-59
2021/10/06 09:23:45;;;;;;;2.03;1.25;;;16.00;89.80;;;;;;4177294;28;20072;-59
2021/10/06 09:26:11;;;;;;;1.10;1.10;;;16.00;89.70;;;;;;4177356;28;21471;-59
2021/10/06 09:28:35;;;;;;;1.30;1.20;;;16.00;89.70;;;;;;4177743;28;20067;-59
2021/10/06 09:31:00;;;;;;;1.40;1.30;;;16.00;90.20;;;;;;4160670;28;20045;-59
2021/10/06 09:33:23;;;;;;;1.15;1.05;;;16.00;89.80;;;;;;4187621;28;20502;-59
2021/10/06 09:35:45;;;;;;;3.63;1.20;;;16.00;89.80;;;;;;4181680;28;20057;-58
2021/10/06 09:38:07;;;;;;;1.38;1.27;;;16.00;89.90;;;;;;4160503;28;20487;-59
2021/10/06 09:40:31;;;;;;;2.65;1.30;;;16.00;89.90;;;;;;4160453;28;20052;-58
2021/10/06 09:42:57;;;;;;;0.80;0.80;;;16.00;90.00;;;;;;4189653;28;20048;-58
2021/10/06 09:45:22;;;;;;;1.83;1.20;;;16.00;90.00;;;;;;4193242;28;20036;-59
2021/10/06 09:48:04;;;;;;;2.78;1.25;;;16.00;90.10;;;;;;4192765;28;20143;-59
2021/10/06 09:50:26;;;;;;;2.00;1.30;;;16.10;90.10;;;;;;4193132;28;20783;-59
2021/10/06 09:52:48;;;;;;;4.72;1.30;;;16.00;90.10;;;;;;4182188;28;20437;-59
2021/10/06 09:55:11;;;;;;;1.60;1.15;;;16.00;90.10;;;;;;4176785;28;20126;-59
2021/10/06 09:57:35;;;;;;;1.70;1.42;;;16.00;90.10;;;;;;4183504;28;20044;-59
2021/10/06 10:00:02;;;;;;;1.48;1.00;;;16.00;90.10;;;;;;4178200;28;20135;-59
2021/10/06 10:02:32;;;;;;;2.05;1.10;;;16.00;90.20;;;;;;4175157;28;20111;-58
2021/10/06 10:04:55;;;;;;;1.35;1.25;;;16.00;90.20;;;;;;4176748;28;20450;-58
2021/10/06 10:07:17;;;;;;;1.92;0.98;;;16.00;90.10;;;;;;4176806;28;20049;-59
2021/10/06 10:09:40;;;;;;;1.10;1.00;;;16.00;90.20;;;;;;4173963;28;20081;-59
2021/10/06 10:12:03;;;;;;;2.55;1.05;;;16.00;90.20;;;;;;4193025;28;20056;-59
2021/10/06 10:14:25;;;;;;;2.35;1.20;;;16.00;90.30;;;;;;4192898;28;20048;-59
2021/10/06 10:16:49;;;;;;;2.55;1.25;;;16.00;90.20;;;;;;4191916;28;20132;-59
2021/10/06 10:19:13;;;;;;;1.98;1.10;;;16.00;90.20;;;;;;4177085;28;20483;-59
2021/10/06 10:21:36;;;;;;;1.77;1.20;;;16.10;90.30;;;;;;4176738;28;20103;-59
2021/10/06 10:24:09;;;;;;;1.45;1.13;;;16.10;90.30;;;;;;4176473;28;20072;-59
2021/10/06 10:26:32;;;;;;;2.22;1.30;;;16.00;90.30;;;;;;4176217;28;20483;-59
2021/10/06 10:28:54;;;;;;;1.35;1.25;;;16.00;90.40;;;;;;4183165;28;20044;-59
2021/10/06 10:31:18;;;;;;;2.10;1.50;;;16.00;90.40;;;;;;4192442;28;20040;-60
2021/10/06 10:33:44;;;;;;;2.42;1.10;;;16.00;90.30;;;;;;4192904;28;20044;-59
2021/10/06 10:36:40;;;;;;;1.60;1.50;;;16.00;90.40;;;;;;4183349;28;20048;-59
2021/10/06 10:39:03;;;;;;;1.15;1.15;;;16.00;90.40;;;;;;4176293;28;20060;-59
2021/10/06 10:41:43;;;;;;;1.40;1.00;;;16.00;90.40;;;;;;4175982;28;20048;-60
2021/10/06 10:44:07;;;;;;;3.58;1.50;;;16.00;90.40;;;;;;4179868;28;20083;-58
2021/10/06 10:46:56;;;;;;;2.38;1.40;;;16.10;90.40;;;;;;4176012;28;20071;-59
2021/10/06 10:49:20;;;;;;;1.40;1.30;;;16.10;90.40;;;;;;4179339;28;20075;-59
2021/10/06 10:51:48;;;;;;;1.20;1.20;;;16.10;90.40;;;;;;4183219;28;20135;-59
2021/10/06 10:54:11;;;;;;;1.20;1.20;;;16.10;90.40;;;;;;4175883;28;20415;-59
2021/10/06 10:56:42;;;;;;;1.55;1.40;;;16.10;90.40;;;;;;4175040;28;20045;-59
2021/10/06 10:59:06;;;;;;;1.55;1.45;;;16.10;90.50;;;;;;4189199;28;20096;-60
2021/10/06 11:01:39;;;;;;;2.03;1.45;;;16.10;90.50;;;;;;4192241;28;20123;-59
2021/10/06 11:04:13;;;;;;;1.30;1.20;;;16.10;90.50;;;;;;4190992;28;20044;-61
2021/10/06 11:06:37;;;;;;;1.73;1.40;;;16.10;90.50;;;;;;4191150;28;20052;-59
2021/10/06 11:09:00;;;;;;;3.10;1.38;;;16.10;90.50;;;;;;4178232;28;20049;-58
2021/10/06 11:11:30;;;;;;;1.30;1.17;;;16.10;90.40;;;;;;4175711;28;20052;-59
2021/10/06 11:13:52;;;;;;;1.50;1.40;;;16.10;90.40;;;;;;4158829;28;20049;-58
2021/10/06 11:16:15;;;;;;;1.15;1.15;;;16.10;90.50;;;;;;4159264;28;20053;-59
2021/10/06 11:18:44;;;;;;;1.90;1.40;;;16.10;90.60;;;;;;4167109;28;20045;-58
2021/10/06 11:21:08;;;;;;;1.30;1.20;;;16.10;90.60;;;;;;4175106;28;20048;-58
2021/10/06 11:23:43;;;;;;;1.33;1.23;;;16.10;90.60;;;;;;4175687;28;20053;-59
2021/10/06 11:26:08;;;;;;;1.88;1.23;;;16.10;90.50;;;;;;4191646;28;20048;-58
2021/10/06 11:28:30;;;;;;;1.15;1.13;;;16.10;90.60;;;;;;4175823;28;20135;-58
2021/10/06 11:30:55;;;;;;;1.60;1.50;;;16.10;90.50;;;;;;4175465;28;20136;-59
2021/10/06 11:33:25;;;;;;;2.35;1.98;;;16.20;90.60;;;;;;4191450;28;20045;-62
2021/10/06 11:35:47;;;;;;;2.15;1.35;;;16.20;90.60;;;;;;4158638;28;20049;-62
2021/10/06 11:38:10;;;;;;;1.63;1.50;;;16.20;90.70;;;;;;4158822;28;20133;-56
2021/10/06 11:40:37;;;;;;;1.70;1.60;;;16.20;90.80;;;;;;4158727;28;20053;-58
2021/10/06 11:43:01;;;;;;;2.30;1.58;;;16.20;91.10;;;;;;4172764;28;20057;-58
2021/10/06 11:45:24;;;;;;;2.42;1.58;;;16.30;90.70;;;;;;4191744;28;20041;-59
2021/10/06 11:47:46;;;;;;;3.45;2.00;;;16.30;90.70;;;;;;4191810;28;20524;-58
2021/10/06 11:50:09;;;;;;;1.50;1.40;;;16.30;90.70;;;;;;4191507;28;20471;-58
2021/10/06 11:52:32;;;;;;;1.60;1.50;;;16.30;90.70;;;;;;4187514;28;20163;-58
2021/10/06 11:54:54;;;;;;;1.75;1.58;;;16.40;90.70;;;;;;4175102;28;20558;-60
2021/10/06 11:57:18;;;;;;;2.60;1.60;;;16.40;90.70;;;;;;4176055;28;20163;-60
2021/10/06 11:59:43;;;;;;;1.98;1.40;;;16.40;90.60;;;;;;4191597;28;20055;-59
2021/10/06 12:02:07;;;;;;;4.70;1.77;;;16.40;90.50;;;;;;4191584;28;20105;-58
2021/10/06 12:04:32;;;;;;;1.90;1.60;;;16.40;90.40;;;;;;4183492;28;20499;-59
2021/10/06 12:07:00;;;;;;;1.65;1.50;;;16.40;90.40;;;;;;4175241;28;20137;-59
2021/10/06 12:09:22;;;;;;;2.08;1.83;;;16.50;90.40;;;;;;4175397;28;20163;-60
2021/10/06 12:11:46;;;;;;;2.03;1.35;;;16.50;90.40;;;;;;4174633;28;20060;-58
2021/10/06 12:14:24;;;;;;;1.58;1.30;;;16.60;90.30;;;;;;4178468;28;20504;-59
2021/10/06 12:16:49;;;;;;;2.65;1.73;;;16.60;90.40;;;;;;4174679;28;20126;-59
2021/10/06 12:19:11;;;;;;;2.65;1.65;;;16.60;90.30;;;;;;4176065;28;20079;-58
2021/10/06 12:21:34;;;;;;;2.03;1.52;;;16.60;90.30;;;;;;4174771;28;20484;-59
2021/10/06 12:24:00;;;;;;;1.90;1.30;;;16.60;90.20;;;;;;4175435;28;20491;-59
2021/10/06 12:26:23;;;;;;;1.30;1.20;;;16.70;90.20;;;;;;4174393;28;20091;-59
2021/10/06 12:28:56;;;;;;;1.42;1.30;;;16.70;90.10;;;;;;4175381;28;20053;-59